sensor_id;sensor_type;location;lat;lon;timestamp;pressure;altitude;pressure_sealevel;temperature;humidity
18795;BME280;29610;49.022;12.114;2023-01-28T00:00:04;98211.53;;;1.64;100.00
18795;BME280;29610;49.022;12.114;2023-01-28T00:02:35;98215.94;;;1.75;100.00
18795;BME280;29610;49.022;12.114;2023-01-28T00:05:05;98213.84;;;1.82;100.00
18795;BME280;29610;49.022;12.114;2023-01-28T00:07:34;98211.59;;;1.69;100.00
18795;BME280;29610;49.022;12.114;2023-01-28T00:10:03;98215.16;;;1.53;100.00
18795;BME280;29610;49.022;12.114;2023-01-28T00:12:31;98208.91;;;1.69;100.00
18795;BME280;29610;49.022;12.114;2023-01-28T00:15:00;98213.00;;;1.77;100.00
18795;BME280;29610;49.022;12.114;2023-01-28T00:17:29;98216.00;;;1.80;100.00
18795;BME280;29610;49.022;12.114;2023-01-28T00:19:58;98211.22;;;1.61;100.00
18795;BME280;29610;49.022;12.114;2023-01-28T00:22:27;98224.28;;;1.57;100.00
18795;BME280;29610;49.022;12.114;2023-01-28T00:24:56;98217.41;;;1.61;100.00
18795;BME280;29610;49.022;12.114;2023-01-28T00:27:24;98223.00;;;1.38;100.00
18795;BME280;29610;49.022;12.114;2023-01-28T00:29:53;98223.91;;;1.48;100.00
18795;BME280;29610;49.022;12.114;2023-01-28T00:32:22;98221.50;;;1.47;100.00
18795;BME280;29610;49.022;12.114;2023-01-28T00:34:52;98223.31;;;1.41;100.00
18795;BME280;29610;49.022;12.114;2023-01-28T00:37:22;98227.97;;;1.29;100.00
18795;BME280;29610;49.022;12.114;2023-01-28T00:39:51;98219.81;;;1.41;100.00
18795;BME280;29610;49.022;12.114;2023-01-28T00:42:19;98222.56;;;1.46;100.00
18795;BME280;29610;49.022;12.114;2023-01-28T00:44:48;98224.41;;;1.45;100.00
18795;BME280;29610;49.022;12.114;2023-01-28T00:47:17;98222.25;;;1.42;100.00
18795;BME280;29610;49.022;12.114;2023-01-28T00:49:45;98225.44;;;1.39;100.00
18795;BME280;29610;49.022;12.114;2023-01-28T00:52:14;98225.00;;;1.26;100.00
18795;BME280;29610;49.022;12.114;2023-01-28T00:54:44;98223.06;;;1.43;100.00
18795;BME280;29610;49.022;12.114;2023-01-28T00:57:12;98233.78;;;1.43;100.00
18795;BME280;29610;49.022;12.114;2023-01-28T00:59:41;98219.75;;;1.36;100.00
18795;BME280;29610;49.022;12.114;2023-01-28T01:02:10;98226.91;;;1.52;100.00
18795;BME280;29610;49.022;12.114;2023-01-28T01:04:41;98229.16;;;1.60;100.00
18795;BME280;29610;49.022;12.114;2023-01-28T01:07:22;98225.97;;;1.63;100.00
18795;BME280;29610;49.022;12.114;2023-01-28T01:10:00;98224.63;;;1.61;100.00
18795;BME280;29610;49.022;12.114;2023-01-28T01:12:29;98227.47;;;1.54;100.00
18795;BME280;29610;49.022;12.114;2023-01-28T01:15:00;98234.69;;;1.53;100.00
18795;BME280;29610;49.022;12.114;2023-01-28T01:17:30;98229.91;;;1.56;100.00
18795;BME280;29610;49.022;12.114;2023-01-28T01:19:59;98226.56;;;1.43;100.00
18795;BME280;29610;49.022;12.114;2023-01-28T01:22:27;98230.97;;;1.33;100.00
18795;BME280;29610;49.022;12.114;2023-01-28T01:24:57;98229.72;;;1.62;100.00
18795;BME280;29610;49.022;12.114;2023-01-28T01:27:27;98237.63;;;1.52;100.00
18795;BME280;29610;49.022;12.114;2023-01-28T01:29:58;98236.75;;;1.68;100.00
18795;BME280;29610;49.022;12.114;2023-01-28T01:32:29;98232.97;;;1.64;100.00
18795;BME280;29610;49.022;12.114;2023-01-28T01:34:58;98237.75;;;1.62;100.00
18795;BME280;29610;49.022;12.114;2023-01-28T01:37:27;98247.13;;;1.60;100.00
18795;BME280;29610;49.022;12.114;2023-01-28T01:39:56;98241.00;;;1.64;100.00
18795;BME280;29610;49.022;12.114;2023-01-28T01:42:25;98245.53;;;1.64;100.00
18795;BME280;29610;49.022;12.114;2023-01-28T01:44:59;98243.31;;;1.56;100.00
18795;BME280;29610;49.022;12.114;2023-01-28T01:47:37;98246.63;;;1.63;100.00
18795;BME280;29610;49.022;12.114;2023-01-28T01:50:16;98248.16;;;1.59;100.00
18795;BME280;29610;49.022;12.114;2023-01-28T01:52:51;98241.25;;;1.41;100.00
18795;BME280;29610;49.022;12.114;2023-01-28T01:55:23;98239.31;;;1.36;100.00
18795;BME280;29610;49.022;12.114;2023-01-28T01:57:57;98241.81;;;1.43;100.00
18795;BME280;29610;49.022;12.114;2023-01-28T02:00:30;98246.47;;;1.31;100.00
18795;BME280;29610;49.022;12.114;2023-01-28T02:02:59;98241.44;;;1.13;100.00
18795;BME280;29610;49.022;12.114;2023-01-28T02:05:28;98245.47;;;1.15;100.00
18795;BME280;29610;49.022;12.114;2023-01-28T02:07:58;98245.53;;;0.99;100.00
18795;BME280;29610;49.022;12.114;2023-01-28T02:10:52;98241.03;;;1.04;100.00
18795;BME280;29610;49.022;12.114;2023-01-28T02:13:25;98245.09;;;1.07;100.00
18795;BME280;29610;49.022;12.114;2023-01-28T02:16:00;98256.22;;;0.99;100.00
18795;BME280;29610;49.022;12.114;2023-01-28T02:18:30;98245.94;;;0.91;100.00
18795;BME280;29610;49.022;12.114;2023-01-28T02:24:53;98255.34;;;0.77;100.00
18795;BME280;29610;49.022;12.114;2023-01-28T02:27:36;98258.34;;;0.80;100.00
18795;BME280;29610;49.022;12.114;2023-01-28T02:30:16;98253.31;;;0.84;100.00
18795;BME280;29610;49.022;12.114;2023-01-28T02:32:54;98260.00;;;0.81;100.00
18795;BME280;29610;49.022;12.114;2023-01-28T02:35:34;98268.72;;;0.93;100.00
18795;BME280;29610;49.022;12.114;2023-01-28T02:38:10;98267.91;;;0.93;100.00
18795;BME280;29610;49.022;12.114;2023-01-28T02:40:45;98276.31;;;1.01;100.00
18795;BME280;29610;49.022;12.114;2023-01-28T02:43:32;98277.44;;;1.05;100.00
18795;BME280;29610;49.022;12.114;2023-01-28T02:46:20;98278.91;;;1.13;100.00
18795;BME280;29610;49.022;12.114;2023-01-28T02:49:12;98281.91;;;1.16;100.00
18795;BME280;29610;49.022;12.114;2023-01-28T02:52:07;98281.41;;;1.19;100.00
18795;BME280;29610;49.022;12.114;2023-01-28T02:54:46;98281.69;;;1.01;100.00
18795;BME280;29610;49.022;12.114;2023-01-28T02:57:33;98280.88;;;1.01;100.00
18795;BME280;29610;49.022;12.114;2023-01-28T03:00:11;98280.44;;;1.09;100.00
18795;BME280;29610;49.022;12.114;2023-01-28T03:02:53;98276.66;;;0.88;100.00
18795;BME280;29610;49.022;12.114;2023-01-28T03:05:30;98282.84;;;0.89;100.00
18795;BME280;29610;49.022;12.114;2023-01-28T03:08:06;98269.38;;;0.84;100.00
18795;BME280;29610;49.022;12.114;2023-01-28T03:10:50;98277.31;;;0.79;100.00
18795;BME280;29610;49.022;12.114;2023-01-28T03:13:38;98273.22;;;0.71;100.00
18795;BME280;29610;49.022;12.114;2023-01-28T03:16:25;98277.41;;;0.67;100.00
18795;BME280;29610;49.022;12.114;2023-01-28T03:19:14;98279.59;;;0.70;100.00
18795;BME280;29610;49.022;12.114;2023-01-28T03:22:03;98270.03;;;0.74;100.00
18795;BME280;29610;49.022;12.114;2023-01-28T03:24:53;98273.84;;;0.78;100.00
18795;BME280;29610;49.022;12.114;2023-01-28T03:27:46;98270.44;;;0.66;100.00
18795;BME280;29610;49.022;12.114;2023-01-28T03:30:41;98276.75;;;0.77;100.00
18795;BME280;29610;49.022;12.114;2023-01-28T03:33:39;98280.00;;;0.79;100.00
18795;BME280;29610;49.022;12.114;2023-01-28T03:36:28;98282.09;;;0.77;100.00
18795;BME280;29610;49.022;12.114;2023-01-28T03:39:31;98289.59;;;0.75;100.00
18795;BME280;29610;49.022;12.114;2023-01-28T03:42:05;98286.66;;;0.76;100.00
18795;BME280;29610;49.022;12.114;2023-01-28T03:44:37;98294.38;;;0.73;100.00
18795;BME280;29610;49.022;12.114;2023-01-28T03:47:22;98285.03;;;0.75;100.00
18795;BME280;29610;49.022;12.114;2023-01-28T03:49:53;98293.78;;;0.87;100.00
18795;BME280;29610;49.022;12.114;2023-01-28T03:52:26;98292.63;;;0.83;100.00
18795;BME280;29610;49.022;12.114;2023-01-28T03:55:08;98291.84;;;0.83;100.00
18795;BME280;29610;49.022;12.114;2023-01-28T03:57:42;98295.72;;;0.75;100.00
18795;BME280;29610;49.022;12.114;2023-01-28T04:00:13;98297.19;;;0.83;100.00
18795;BME280;29610;49.022;12.114;2023-01-28T04:02:43;98293.78;;;0.87;100.00
18795;BME280;29610;49.022;12.114;2023-01-28T04:05:15;98295.16;;;0.90;100.00
18795;BME280;29610;49.022;12.114;2023-01-28T04:07:49;98294.56;;;0.88;100.00
18795;BME280;29610;49.022;12.114;2023-01-28T04:10:37;98296.97;;;0.84;100.00
18795;BME280;29610;49.022;12.114;2023-01-28T04:13:13;98296.88;;;0.79;100.00
18795;BME280;29610;49.022;12.114;2023-01-28T04:15:42;98292.25;;;0.75;100.00
18795;BME280;29610;49.022;12.114;2023-01-28T04:18:13;98293.88;;;0.76;100.00
18795;BME280;29610;49.022;12.114;2023-01-28T04:20:42;98292.81;;;0.77;100.00
18795;BME280;29610;49.022;12.114;2023-01-28T04:23:12;98296.22;;;0.72;100.00
18795;BME280;29610;49.022;12.114;2023-01-28T04:25:41;98295.59;;;0.65;100.00
18795;BME280;29610;49.022;12.114;2023-01-28T04:28:10;98304.25;;;0.72;100.00
18795;BME280;29610;49.022;12.114;2023-01-28T04:30:38;98306.59;;;0.69;100.00
18795;BME280;29610;49.022;12.114;2023-01-28T04:33:33;98313.25;;;0.66;100.00
18795;BME280;29610;49.022;12.114;2023-01-28T04:36:12;98317.13;;;0.75;100.00
18795;BME280;29610;49.022;12.114;2023-01-28T04:38:59;98317.63;;;0.72;100.00
18795;BME280;29610;49.022;12.114;2023-01-28T04:41:39;98322.22;;;0.77;100.00
18795;BME280;29610;49.022;12.114;2023-01-28T04:44:17;98328.25;;;0.84;100.00
18795;BME280;29610;49.022;12.114;2023-01-28T04:46:52;98324.34;;;0.91;100.00
18795;BME280;29610;49.022;12.114;2023-01-28T04:49:33;98335.69;;;0.98;100.00
18795;BME280;29610;49.022;12.114;2023-01-28T04:52:20;98336.81;;;1.02;100.00
18795;BME280;29610;49.022;12.114;2023-01-28T04:55:18;98334.31;;;1.12;100.00
18795;BME280;29610;49.022;12.114;2023-01-28T04:57:47;98331.88;;;1.27;100.00
18795;BME280;29610;49.022;12.114;2023-01-28T05:00:18;98335.75;;;1.20;100.00
18795;BME280;29610;49.022;12.114;2023-01-28T05:02:47;98334.13;;;1.35;100.00
18795;BME280;29610;49.022;12.114;2023-01-28T05:05:16;98332.06;;;1.42;100.00
18795;BME280;29610;49.022;12.114;2023-01-28T05:07:57;98326.88;;;1.36;100.00
18795;BME280;29610;49.022;12.114;2023-01-28T05:10:27;98322.66;;;1.40;100.00
18795;BME280;29610;49.022;12.114;2023-01-28T05:12:57;98327.94;;;1.35;100.00
18795;BME280;29610;49.022;12.114;2023-01-28T05:15:25;98327.03;;;1.46;100.00
18795;BME280;29610;49.022;12.114;2023-01-28T05:17:54;98330.13;;;1.38;100.00
18795;BME280;29610;49.022;12.114;2023-01-28T05:20:25;98333.56;;;1.55;100.00
18795;BME280;29610;49.022;12.114;2023-01-28T05:22:56;98336.00;;;1.57;100.00
18795;BME280;29610;49.022;12.114;2023-01-28T05:25:35;98328.13;;;1.50;100.00
18795;BME280;29610;49.022;12.114;2023-01-28T05:28:04;98332.03;;;1.59;100.00
18795;BME280;29610;49.022;12.114;2023-01-28T05:30:33;98327.41;;;1.55;100.00
18795;BME280;29610;49.022;12.114;2023-01-28T05:33:02;98334.91;;;1.36;100.00
18795;BME280;29610;49.022;12.114;2023-01-28T05:35:30;98331.44;;;1.57;100.00
18795;BME280;29610;49.022;12.114;2023-01-28T05:37:59;98331.88;;;1.49;100.00
18795;BME280;29610;49.022;12.114;2023-01-28T05:40:29;98328.59;;;1.64;100.00
18795;BME280;29610;49.022;12.114;2023-01-28T05:42:59;98324.84;;;1.65;100.00
18795;BME280;29610;49.022;12.114;2023-01-28T05:45:37;98331.69;;;1.56;100.00
18795;BME280;29610;49.022;12.114;2023-01-28T05:48:32;98335.75;;;1.58;100.00
18795;BME280;29610;49.022;12.114;2023-01-28T05:51:15;98334.56;;;1.49;100.00
18795;BME280;29610;49.022;12.114;2023-01-28T05:53:52;98334.22;;;1.45;100.00
18795;BME280;29610;49.022;12.114;2023-01-28T05:56:22;98328.44;;;1.32;100.00
18795;BME280;29610;49.022;12.114;2023-01-28T05:58:53;98335.47;;;1.38;100.00
18795;BME280;29610;49.022;12.114;2023-01-28T06:01:22;98331.63;;;1.29;100.00
18795;BME280;29610;49.022;12.114;2023-01-28T06:03:53;98332.66;;;1.28;100.00
18795;BME280;29610;49.022;12.114;2023-01-28T06:06:23;98339.16;;;1.32;100.00
18795;BME280;29610;49.022;12.114;2023-01-28T06:08:52;98339.91;;;1.27;100.00
18795;BME280;29610;49.022;12.114;2023-01-28T06:11:25;98348.19;;;1.26;100.00
18795;BME280;29610;49.022;12.114;2023-01-28T06:14:00;98343.59;;;1.26;100.00
18795;BME280;29610;49.022;12.114;2023-01-28T06:16:47;98353.13;;;1.34;100.00
18795;BME280;29610;49.022;12.114;2023-01-28T06:19:44;98354.53;;;1.41;100.00
18795;BME280;29610;49.022;12.114;2023-01-28T06:22:13;98357.84;;;1.48;100.00
18795;BME280;29610;49.022;12.114;2023-01-28T06:24:42;98361.50;;;1.59;100.00
18795;BME280;29610;49.022;12.114;2023-01-28T06:27:10;98367.03;;;1.52;100.00
18795;BME280;29610;49.022;12.114;2023-01-28T06:29:40;98367.03;;;1.74;100.00
18795;BME280;29610;49.022;12.114;2023-01-28T06:32:09;98358.44;;;1.72;100.00
18795;BME280;29610;49.022;12.114;2023-01-28T06:34:38;98368.41;;;1.77;100.00
18795;BME280;29610;49.022;12.114;2023-01-28T06:37:06;98376.31;;;1.67;100.00
18795;BME280;29610;49.022;12.114;2023-01-28T06:39:35;98374.97;;;1.64;100.00
18795;BME280;29610;49.022;12.114;2023-01-28T06:42:04;98377.72;;;1.69;100.00
18795;BME280;29610;49.022;12.114;2023-01-28T06:44:33;98376.13;;;1.73;100.00
18795;BME280;29610;49.022;12.114;2023-01-28T06:47:03;98392.78;;;1.97;100.00
18795;BME280;29610;49.022;12.114;2023-01-28T06:49:32;98389.53;;;1.95;100.00
18795;BME280;29610;49.022;12.114;2023-01-28T06:52:00;98391.28;;;1.84;100.00
18795;BME280;29610;49.022;12.114;2023-01-28T06:54:29;98392.44;;;1.88;100.00
18795;BME280;29610;49.022;12.114;2023-01-28T06:56:58;98394.00;;;2.06;100.00
18795;BME280;29610;49.022;12.114;2023-01-28T06:59:27;98395.03;;;2.05;100.00
18795;BME280;29610;49.022;12.114;2023-01-28T07:01:55;98396.84;;;1.99;100.00
18795;BME280;29610;49.022;12.114;2023-01-28T07:04:25;98399.34;;;2.06;100.00
18795;BME280;29610;49.022;12.114;2023-01-28T07:06:54;98404.03;;;2.15;100.00
18795;BME280;29610;49.022;12.114;2023-01-28T07:09:23;98410.88;;;2.28;100.00
18795;BME280;29610;49.022;12.114;2023-01-28T07:11:51;98419.88;;;2.17;100.00
18795;BME280;29610;49.022;12.114;2023-01-28T07:14:20;98415.63;;;1.99;100.00
18795;BME280;29610;49.022;12.114;2023-01-28T07:16:49;98413.44;;;2.18;100.00
18795;BME280;29610;49.022;12.114;2023-01-28T07:19:18;98422.03;;;2.20;100.00
18795;BME280;29610;49.022;12.114;2023-01-28T07:21:48;98418.03;;;2.22;100.00
18795;BME280;29610;49.022;12.114;2023-01-28T07:24:16;98427.72;;;2.23;100.00
18795;BME280;29610;49.022;12.114;2023-01-28T07:26:47;98427.84;;;2.12;100.00
18795;BME280;29610;49.022;12.114;2023-01-28T07:29:15;98430.59;;;2.17;100.00
18795;BME280;29610;49.022;12.114;2023-01-28T07:31:44;98423.97;;;2.24;100.00
18795;BME280;29610;49.022;12.114;2023-01-28T07:34:13;98422.72;;;2.32;100.00
18795;BME280;29610;49.022;12.114;2023-01-28T07:36:42;98421.25;;;2.46;100.00
18795;BME280;29610;49.022;12.114;2023-01-28T07:39:12;98419.47;;;2.30;100.00
18795;BME280;29610;49.022;12.114;2023-01-28T07:41:40;98416.16;;;2.23;100.00
18795;BME280;29610;49.022;12.114;2023-01-28T07:44:10;98420.34;;;2.35;100.00
18795;BME280;29610;49.022;12.114;2023-01-28T07:46:39;98422.53;;;2.38;100.00
18795;BME280;29610;49.022;12.114;2023-01-28T07:49:08;98429.03;;;2.47;100.00
18795;BME280;29610;49.022;12.114;2023-01-28T07:51:36;98426.59;;;2.41;100.00
18795;BME280;29610;49.022;12.114;2023-01-28T07:54:05;98429.03;;;2.47;100.00
18795;BME280;29610;49.022;12.114;2023-01-28T07:56:36;98433.75;;;2.57;100.00
18795;BME280;29610;49.022;12.114;2023-01-28T07:59:04;98438.28;;;2.35;100.00
18795;BME280;29610;49.022;12.114;2023-01-28T08:01:33;98442.94;;;2.18;100.00
18795;BME280;29610;49.022;12.114;2023-01-28T08:04:02;98439.31;;;2.07;100.00
18795;BME280;29610;49.022;12.114;2023-01-28T08:06:31;98444.28;;;1.99;100.00
18795;BME280;29610;49.022;12.114;2023-01-28T08:09:04;98449.09;;;2.18;100.00
18795;BME280;29610;49.022;12.114;2023-01-28T08:11:37;98456.00;;;2.14;100.00
18795;BME280;29610;49.022;12.114;2023-01-28T08:14:06;98454.53;;;2.23;100.00
18795;BME280;29610;49.022;12.114;2023-01-28T08:16:35;98458.59;;;2.04;100.00
18795;BME280;29610;49.022;12.114;2023-01-28T08:19:05;98453.59;;;2.13;100.00
18795;BME280;29610;49.022;12.114;2023-01-28T08:21:34;98458.66;;;2.31;100.00
18795;BME280;29610;49.022;12.114;2023-01-28T08:24:02;98460.16;;;2.22;100.00
18795;BME280;29610;49.022;12.114;2023-01-28T08:26:31;98452.09;;;2.22;100.00
18795;BME280;29610;49.022;12.114;2023-01-28T08:29:01;98462.16;;;2.31;100.00
18795;BME280;29610;49.022;12.114;2023-01-28T08:31:30;98466.00;;;2.19;100.00
18795;BME280;29610;49.022;12.114;2023-01-28T08:33:59;98463.31;;;2.19;100.00
18795;BME280;29610;49.022;12.114;2023-01-28T08:36:28;98455.97;;;2.31;100.00
18795;BME280;29610;49.022;12.114;2023-01-28T08:38:57;98461.50;;;2.24;100.00
18795;BME280;29610;49.022;12.114;2023-01-28T08:41:26;98468.00;;;2.28;100.00
18795;BME280;29610;49.022;12.114;2023-01-28T08:43:55;98471.75;;;2.27;100.00
18795;BME280;29610;49.022;12.114;2023-01-28T08:46:25;98461.22;;;2.42;100.00
18795;BME280;29610;49.022;12.114;2023-01-28T08:48:57;98461.75;;;2.44;100.00
18795;BME280;29610;49.022;12.114;2023-01-28T08:51:26;98458.53;;;2.42;100.00
18795;BME280;29610;49.022;12.114;2023-01-28T08:53:54;98462.19;;;2.36;100.00
18795;BME280;29610;49.022;12.114;2023-01-28T08:56:23;98463.72;;;2.49;100.00
18795;BME280;29610;49.022;12.114;2023-01-28T08:58:52;98462.31;;;2.46;100.00
18795;BME280;29610;49.022;12.114;2023-01-28T09:01:20;98466.84;;;2.46;100.00
18795;BME280;29610;49.022;12.114;2023-01-28T09:03:50;98461.94;;;2.59;100.00
18795;BME280;29610;49.022;12.114;2023-01-28T09:06:19;98459.56;;;2.89;100.00
18795;BME280;29610;49.022;12.114;2023-01-28T09:08:48;98465.03;;;2.99;100.00
18795;BME280;29610;49.022;12.114;2023-01-28T09:11:16;98467.69;;;2.94;100.00
18795;BME280;29610;49.022;12.114;2023-01-28T09:13:45;98463.31;;;2.88;100.00
18795;BME280;29610;49.022;12.114;2023-01-28T09:16:14;98461.91;;;3.08;100.00
18795;BME280;29610;49.022;12.114;2023-01-28T09:18:43;98470.34;;;2.94;100.00
18795;BME280;29610;49.022;12.114;2023-01-28T09:21:13;98473.88;;;2.95;100.00
18795;BME280;29610;49.022;12.114;2023-01-28T09:23:42;98471.84;;;2.80;100.00
18795;BME280;29610;49.022;12.114;2023-01-28T09:26:11;98479.19;;;2.90;100.00
18795;BME280;29610;49.022;12.114;2023-01-28T09:28:40;98484.63;;;2.73;100.00
18795;BME280;29610;49.022;12.114;2023-01-28T09:31:11;98486.47;;;2.68;100.00
18795;BME280;29610;49.022;12.114;2023-01-28T09:33:40;98483.00;;;2.72;100.00
18795;BME280;29610;49.022;12.114;2023-01-28T09:36:12;98485.34;;;2.90;100.00
18795;BME280;29610;49.022;12.114;2023-01-28T09:38:40;98489.03;;;2.84;100.00
18795;BME280;29610;49.022;12.114;2023-01-28T09:41:25;98494.47;;;2.89;100.00
18795;BME280;29610;49.022;12.114;2023-01-28T09:44:19;98490.22;;;2.93;100.00
18795;BME280;29610;49.022;12.114;2023-01-28T09:46:50;98482.47;;;2.97;100.00
18795;BME280;29610;49.022;12.114;2023-01-28T09:49:24;98494.31;;;3.01;100.00
18795;BME280;29610;49.022;12.114;2023-01-28T09:51:56;98485.72;;;2.99;100.00
18795;BME280;29610;49.022;12.114;2023-01-28T09:54:35;98486.44;;;3.21;100.00
18795;BME280;29610;49.022;12.114;2023-01-28T09:57:18;98492.84;;;3.15;100.00
18795;BME280;29610;49.022;12.114;2023-01-28T09:59:48;98486.28;;;3.33;100.00
18795;BME280;29610;49.022;12.114;2023-01-28T10:02:37;98483.88;;;3.31;100.00
18795;BME280;29610;49.022;12.114;2023-01-28T10:05:19;98483.34;;;3.34;100.00
18795;BME280;29610;49.022;12.114;2023-01-28T10:08:10;98484.72;;;3.37;100.00
18795;BME280;29610;49.022;12.114;2023-01-28T10:10:48;98483.25;;;3.24;100.00
18795;BME280;29610;49.022;12.114;2023-01-28T10:13:30;98488.81;;;3.18;100.00
18795;BME280;29610;49.022;12.114;2023-01-28T10:16:19;98490.78;;;3.22;100.00
18795;BME280;29610;49.022;12.114;2023-01-28T10:19:04;98493.00;;;3.03;100.00
18795;BME280;29610;49.022;12.114;2023-01-28T10:21:56;98495.06;;;2.70;100.00
18795;BME280;29610;49.022;12.114;2023-01-28T10:24:33;98491.38;;;2.76;100.00
18795;BME280;29610;49.022;12.114;2023-01-28T10:27:11;98493.56;;;2.57;100.00
18795;BME280;29610;49.022;12.114;2023-01-28T10:29:42;98500.94;;;2.67;100.00
18795;BME280;29610;49.022;12.114;2023-01-28T10:32:22;98494.13;;;2.59;100.00
18795;BME280;29610;49.022;12.114;2023-01-28T10:34:54;98497.63;;;2.60;100.00
18795;BME280;29610;49.022;12.114;2023-01-28T10:37:26;98499.72;;;2.79;100.00
18795;BME280;29610;49.022;12.114;2023-01-28T10:39:59;98498.34;;;2.77;100.00
18795;BME280;29610;49.022;12.114;2023-01-28T10:42:32;98504.41;;;2.46;100.00
18795;BME280;29610;49.022;12.114;2023-01-28T10:45:07;98492.31;;;2.65;100.00
18795;BME280;29610;49.022;12.114;2023-01-28T10:47:47;98495.47;;;2.57;100.00
18795;BME280;29610;49.022;12.114;2023-01-28T10:50:21;98496.00;;;2.37;100.00
18795;BME280;29610;49.022;12.114;2023-01-28T10:52:55;98498.75;;;2.42;100.00
18795;BME280;29610;49.022;12.114;2023-01-28T10:55:28;98488.44;;;2.56;100.00
18795;BME280;29610;49.022;12.114;2023-01-28T10:57:59;98496.25;;;2.57;100.00
18795;BME280;29610;49.022;12.114;2023-01-28T11:00:33;98494.25;;;2.69;100.00
18795;BME280;29610;49.022;12.114;2023-01-28T11:03:03;98494.44;;;2.63;100.00
18795;BME280;29610;49.022;12.114;2023-01-28T11:05:32;98487.44;;;2.62;100.00
18795;BME280;29610;49.022;12.114;2023-01-28T11:08:12;98481.03;;;2.63;100.00
18795;BME280;29610;49.022;12.114;2023-01-28T11:10:43;98484.69;;;2.78;100.00
18795;BME280;29610;49.022;12.114;2023-01-28T11:13:18;98488.44;;;2.77;100.00
18795;BME280;29610;49.022;12.114;2023-01-28T11:15:49;98483.78;;;2.94;100.00
18795;BME280;29610;49.022;12.114;2023-01-28T11:18:23;98480.19;;;2.84;100.00
18795;BME280;29610;49.022;12.114;2023-01-28T11:20:56;98488.28;;;2.89;100.00
18795;BME280;29610;49.022;12.114;2023-01-28T11:23:29;98478.16;;;2.96;100.00
18795;BME280;29610;49.022;12.114;2023-01-28T11:26:08;98491.91;;;2.99;100.00
18795;BME280;29610;49.022;12.114;2023-01-28T11:28:42;98489.41;;;2.93;100.00
18795;BME280;29610;49.022;12.114;2023-01-28T11:31:14;98490.44;;;2.92;100.00
18795;BME280;29610;49.022;12.114;2023-01-28T11:33:48;98488.91;;;2.69;100.00
18795;BME280;29610;49.022;12.114;2023-01-28T11:36:20;98490.84;;;2.31;100.00
18795;BME280;29610;49.022;12.114;2023-01-28T11:38:52;98491.19;;;2.61;100.00
18795;BME280;29610;49.022;12.114;2023-01-28T11:41:29;98492.16;;;2.76;100.00
18795;BME280;29610;49.022;12.114;2023-01-28T11:44:10;98485.59;;;2.89;100.00
18795;BME280;29610;49.022;12.114;2023-01-28T11:47:08;98483.38;;;3.08;100.00
18795;BME280;29610;49.022;12.114;2023-01-28T11:50:03;98480.66;;;3.03;100.00
18795;BME280;29610;49.022;12.114;2023-01-28T11:52:47;98472.97;;;3.16;100.00
18795;BME280;29610;49.022;12.114;2023-01-28T11:55:49;98467.38;;;3.23;100.00
18795;BME280;29610;49.022;12.114;2023-01-28T11:58:29;98470.59;;;3.20;100.00
18795;BME280;29610;49.022;12.114;2023-01-28T12:01:09;98466.03;;;3.20;100.00
18795;BME280;29610;49.022;12.114;2023-01-28T12:04:11;98463.25;;;3.10;100.00
18795;BME280;29610;49.022;12.114;2023-01-28T12:07:07;98463.38;;;2.93;100.00
18795;BME280;29610;49.022;12.114;2023-01-28T12:09:48;98462.81;;;2.91;100.00
18795;BME280;29610;49.022;12.114;2023-01-28T12:12:43;98469.19;;;2.85;100.00
18795;BME280;29610;49.022;12.114;2023-01-28T12:15:43;98465.09;;;3.05;100.00
18795;BME280;29610;49.022;12.114;2023-01-28T12:18:46;98468.41;;;3.17;100.00
18795;BME280;29610;49.022;12.114;2023-01-28T12:21:32;98458.66;;;3.06;100.00
18795;BME280;29610;49.022;12.114;2023-01-28T12:24:21;98465.34;;;3.03;100.00
18795;BME280;29610;49.022;12.114;2023-01-28T12:27:03;98459.41;;;3.01;100.00
18795;BME280;29610;49.022;12.114;2023-01-28T12:29:44;98460.38;;;2.90;100.00
18795;BME280;29610;49.022;12.114;2023-01-28T12:32:38;98461.94;;;2.86;100.00
18795;BME280;29610;49.022;12.114;2023-01-28T12:35:30;98461.84;;;2.76;100.00
18795;BME280;29610;49.022;12.114;2023-01-28T12:38:13;98462.38;;;2.51;100.00
18795;BME280;29610;49.022;12.114;2023-01-28T12:40:59;98473.69;;;2.53;100.00
18795;BME280;29610;49.022;12.114;2023-01-28T12:43:52;98466.13;;;2.50;100.00
18795;BME280;29610;49.022;12.114;2023-01-28T12:46:34;98468.50;;;2.47;100.00
18795;BME280;29610;49.022;12.114;2023-01-28T12:49:13;98462.50;;;2.40;100.00
18795;BME280;29610;49.022;12.114;2023-01-28T12:51:56;98471.22;;;2.30;100.00
18795;BME280;29610;49.022;12.114;2023-01-28T12:54:35;98464.25;;;2.51;100.00
18795;BME280;29610;49.022;12.114;2023-01-28T12:57:12;98462.75;;;2.60;100.00
18795;BME280;29610;49.022;12.114;2023-01-28T12:59:47;98461.50;;;2.67;100.00
18795;BME280;29610;49.022;12.114;2023-01-28T13:02:25;98462.00;;;2.64;100.00
18795;BME280;29610;49.022;12.114;2023-01-28T13:05:07;98470.50;;;2.83;100.00
18795;BME280;29610;49.022;12.114;2023-01-28T13:07:43;98473.31;;;2.93;100.00
18795;BME280;29610;49.022;12.114;2023-01-28T13:10:23;98467.28;;;3.08;100.00
18795;BME280;29610;49.022;12.114;2023-01-28T13:12:53;98465.50;;;2.91;100.00
18795;BME280;29610;49.022;12.114;2023-01-28T13:15:23;98473.94;;;2.78;100.00
18795;BME280;29610;49.022;12.114;2023-01-28T13:17:57;98477.13;;;2.75;100.00
18795;BME280;29610;49.022;12.114;2023-01-28T13:20:48;98478.47;;;2.51;100.00
18795;BME280;29610;49.022;12.114;2023-01-28T13:23:25;98475.53;;;2.53;100.00
18795;BME280;29610;49.022;12.114;2023-01-28T13:26:23;98473.81;;;2.42;100.00
18795;BME280;29610;49.022;12.114;2023-01-28T13:29:14;98462.25;;;2.41;100.00
18795;BME280;29610;49.022;12.114;2023-01-28T13:31:47;98464.75;;;2.48;100.00
18795;BME280;29610;49.022;12.114;2023-01-28T13:34:32;98480.91;;;2.53;100.00